sensor_id;sensor_type;location;lat;lon;timestamp;P1;durP1;ratioP1;P2;durP2;ratioP2
39098;SDS011;24844;52.380;7.018;2023-01-10T00:02:08;24.80;;;11.45;;
39098;SDS011;24844;52.380;7.018;2023-01-10T00:04:34;24.63;;;8.88;;
39098;SDS011;24844;52.380;7.018;2023-01-10T00:07:00;27.33;;;11.68;;
39098;SDS011;24844;52.380;7.018;2023-01-10T00:09:25;40.92;;;12.80;;
39098;SDS011;24844;52.380;7.018;2023-01-10T00:11:51;32.22;;;11.18;;
39098;SDS011;24844;52.380;7.018;2023-01-10T00:14:35;38.13;;;11.68;;
39098;SDS011;24844;52.380;7.018;2023-01-10T00:17:01;37.40;;;11.50;;
39098;SDS011;24844;52.380;7.018;2023-01-10T00:19:28;39.25;;;11.15;;
39098;SDS011;24844;52.380;7.018;2023-01-10T00:21:53;32.35;;;10.07;;
39098;SDS011;24844;52.380;7.018;2023-01-10T00:24:21;33.77;;;10.50;;
39098;SDS011;24844;52.380;7.018;2023-01-10T00:26:48;37.70;;;10.60;;
39098;SDS011;24844;52.380;7.018;2023-01-10T00:29:18;29.83;;;9.35;;
39098;SDS011;24844;52.380;7.018;2023-01-10T00:31:46;36.95;;;10.88;;
39098;SDS011;24844;52.380;7.018;2023-01-10T00:34:12;39.63;;;10.43;;
39098;SDS011;24844;52.380;7.018;2023-01-10T00:36:38;30.33;;;10.45;;
39098;SDS011;24844;52.380;7.018;2023-01-10T00:39:04;35.17;;;9.73;;
39098;SDS011;24844;52.380;7.018;2023-01-10T00:41:30;33.58;;;10.45;;
39098;SDS011;24844;52.380;7.018;2023-01-10T00:44:15;35.13;;;9.35;;
39098;SDS011;24844;52.380;7.018;2023-01-10T00:46:40;32.85;;;9.88;;
39098;SDS011;24844;52.380;7.018;2023-01-10T00:49:06;39.65;;;10.00;;
39098;SDS011;24844;52.380;7.018;2023-01-10T00:51:32;31.33;;;9.50;;
39098;SDS011;24844;52.380;7.018;2023-01-10T00:53:58;34.90;;;9.35;;
39098;SDS011;24844;52.380;7.018;2023-01-10T00:56:24;40.30;;;10.32;;
39098;SDS011;24844;52.380;7.018;2023-01-10T00:58:50;29.17;;;8.77;;
39098;SDS011;24844;52.380;7.018;2023-01-10T01:01:15;28.60;;;7.55;;
39098;SDS011;24844;52.380;7.018;2023-01-10T01:03:41;31.45;;;7.93;;
39098;SDS011;24844;52.380;7.018;2023-01-10T01:06:06;25.40;;;7.05;;
39098;SDS011;24844;52.380;7.018;2023-01-10T01:08:32;30.23;;;8.18;;
39098;SDS011;24844;52.380;7.018;2023-01-10T01:10:58;37.42;;;7.80;;
39098;SDS011;24844;52.380;7.018;2023-01-10T01:13:24;30.73;;;7.43;;
39098;SDS011;24844;52.380;7.018;2023-01-10T01:15:49;37.15;;;6.55;;
39098;SDS011;24844;52.380;7.018;2023-01-10T01:18:16;35.10;;;7.28;;
39098;SDS011;24844;52.380;7.018;2023-01-10T01:20:45;36.38;;;7.55;;
39098;SDS011;24844;52.380;7.018;2023-01-10T01:23:11;36.90;;;6.85;;
39098;SDS011;24844;52.380;7.018;2023-01-10T01:25:40;35.35;;;7.32;;
39098;SDS011;24844;52.380;7.018;2023-01-10T01:28:06;28.98;;;7.15;;
39098;SDS011;24844;52.380;7.018;2023-01-10T01:30:33;35.83;;;7.43;;
39098;SDS011;24844;52.380;7.018;2023-01-10T01:32:58;34.25;;;6.22;;
39098;SDS011;24844;52.380;7.018;2023-01-10T01:35:24;29.70;;;6.55;;
39098;SDS011;24844;52.380;7.018;2023-01-10T01:37:50;22.73;;;5.93;;
39098;SDS011;24844;52.380;7.018;2023-01-10T01:40:17;41.28;;;6.15;;
39098;SDS011;24844;52.380;7.018;2023-01-10T01:42:43;26.63;;;5.53;;
39098;SDS011;24844;52.380;7.018;2023-01-10T01:47:42;34.67;;;5.00;;
39098;SDS011;24844;52.380;7.018;2023-01-10T01:53:47;19.75;;;4.78;;
39098;SDS011;24844;52.380;7.018;2023-01-10T01:55:56;24.67;;;5.18;;
39098;SDS011;24844;52.380;7.018;2023-01-10T01:58:39;22.40;;;5.05;;
39098;SDS011;24844;52.380;7.018;2023-01-10T02:01:10;19.42;;;4.78;;
39098;SDS011;24844;52.380;7.018;2023-01-10T02:06:05;34.85;;;6.07;;
39098;SDS011;24844;52.380;7.018;2023-01-10T02:08:32;26.75;;;4.55;;
39098;SDS011;24844;52.380;7.018;2023-01-10T02:11:01;18.42;;;4.65;;
39098;SDS011;24844;52.380;7.018;2023-01-10T02:13:32;41.50;;;5.82;;
39098;SDS011;24844;52.380;7.018;2023-01-10T02:16:02;22.38;;;4.88;;
39098;SDS011;24844;52.380;7.018;2023-01-10T02:18:28;24.10;;;4.60;;
39098;SDS011;24844;52.380;7.018;2023-01-10T02:21:04;26.77;;;4.88;;
39098;SDS011;24844;52.380;7.018;2023-01-10T02:32:10;21.42;;;4.75;;
39098;SDS011;24844;52.380;7.018;2023-01-10T02:34:52;27.20;;;5.60;;
39098;SDS011;24844;52.380;7.018;2023-01-10T02:37:46;28.80;;;4.88;;
39098;SDS011;24844;52.380;7.018;2023-01-10T02:40:29;25.73;;;5.03;;
39098;SDS011;24844;52.380;7.018;2023-01-10T02:43:25;18.38;;;4.72;;
39098;SDS011;24844;52.380;7.018;2023-01-10T02:45:59;30.00;;;6.05;;
39098;SDS011;24844;52.380;7.018;2023-01-10T02:48:29;24.48;;;4.85;;
39098;SDS011;24844;52.380;7.018;2023-01-10T02:51:02;21.20;;;4.13;;
39098;SDS011;24844;52.380;7.018;2023-01-10T02:54:10;16.55;;;4.35;;
39098;SDS011;24844;52.380;7.018;2023-01-10T03:11:00;27.77;;;6.20;;
39098;SDS011;24844;52.380;7.018;2023-01-10T03:16:13;29.95;;;6.40;;
39098;SDS011;24844;52.380;7.018;2023-01-10T03:18:52;31.30;;;6.88;;
39098;SDS011;24844;52.380;7.018;2023-01-10T03:21:22;29.90;;;6.55;;
39098;SDS011;24844;52.380;7.018;2023-01-10T03:23:49;27.05;;;6.20;;
39098;SDS011;24844;52.380;7.018;2023-01-10T03:26:23;28.80;;;6.20;;
39098;SDS011;24844;52.380;7.018;2023-01-10T03:28:59;21.98;;;6.07;;
39098;SDS011;24844;52.380;7.018;2023-01-10T03:31:31;27.67;;;6.03;;
39098;SDS011;24844;52.380;7.018;2023-01-10T03:34:03;21.92;;;5.65;;
39098;SDS011;24844;52.380;7.018;2023-01-10T03:39:05;33.35;;;7.22;;
39098;SDS011;24844;52.380;7.018;2023-01-10T03:44:56;32.05;;;6.10;;
39098;SDS011;24844;52.380;7.018;2023-01-10T03:47:34;26.48;;;6.40;;
39098;SDS011;24844;52.380;7.018;2023-01-10T03:50:06;20.17;;;5.05;;
39098;SDS011;24844;52.380;7.018;2023-01-10T03:52:38;21.48;;;5.13;;
39098;SDS011;24844;52.380;7.018;2023-01-10T03:55:06;20.60;;;5.20;;
39098;SDS011;24844;52.380;7.018;2023-01-10T03:57:34;19.23;;;5.45;;
39098;SDS011;24844;52.380;7.018;2023-01-10T04:00:00;25.05;;;6.18;;
39098;SDS011;24844;52.380;7.018;2023-01-10T04:02:29;26.15;;;5.45;;
39098;SDS011;24844;52.380;7.018;2023-01-10T04:04:56;24.38;;;5.18;;
39098;SDS011;24844;52.380;7.018;2023-01-10T04:07:21;25.75;;;6.00;;
39098;SDS011;24844;52.380;7.018;2023-01-10T04:09:47;18.42;;;4.78;;
39098;SDS011;24844;52.380;7.018;2023-01-10T04:12:13;18.50;;;5.03;;
39098;SDS011;24844;52.380;7.018;2023-01-10T04:14:39;23.25;;;5.75;;
39098;SDS011;24844;52.380;7.018;2023-01-10T04:17:05;30.55;;;5.65;;
39098;SDS011;24844;52.380;7.018;2023-01-10T04:19:31;18.30;;;4.57;;
39098;SDS011;24844;52.380;7.018;2023-01-10T04:21:56;22.77;;;5.30;;
39098;SDS011;24844;52.380;7.018;2023-01-10T04:24:22;21.52;;;4.43;;
39098;SDS011;24844;52.380;7.018;2023-01-10T04:26:47;26.70;;;5.05;;
39098;SDS011;24844;52.380;7.018;2023-01-10T04:29:13;30.92;;;5.35;;
39098;SDS011;24844;52.380;7.018;2023-01-10T04:31:39;26.52;;;5.30;;
39098;SDS011;24844;52.380;7.018;2023-01-10T04:34:05;33.45;;;5.50;;
39098;SDS011;24844;52.380;7.018;2023-01-10T04:36:31;27.00;;;4.78;;
39098;SDS011;24844;52.380;7.018;2023-01-10T04:38:57;33.35;;;5.25;;
39098;SDS011;24844;52.380;7.018;2023-01-10T04:41:23;30.75;;;4.88;;
39098;SDS011;24844;52.380;7.018;2023-01-10T04:43:48;19.42;;;4.13;;
39098;SDS011;24844;52.380;7.018;2023-01-10T04:46:14;30.35;;;6.22;;
39098;SDS011;24844;52.380;7.018;2023-01-10T04:48:40;32.03;;;4.90;;
39098;SDS011;24844;52.380;7.018;2023-01-10T04:51:05;28.52;;;4.50;;
39098;SDS011;24844;52.380;7.018;2023-01-10T04:53:31;21.95;;;4.05;;
39098;SDS011;24844;52.380;7.018;2023-01-10T04:56:03;22.50;;;3.85;;
39098;SDS011;24844;52.380;7.018;2023-01-10T04:58:34;21.33;;;3.65;;
39098;SDS011;24844;52.380;7.018;2023-01-10T05:01:35;30.73;;;5.03;;
39098;SDS011;24844;52.380;7.018;2023-01-10T05:03:54;29.13;;;4.10;;
39098;SDS011;24844;52.380;7.018;2023-01-10T05:06:21;23.00;;;4.13;;
39098;SDS011;24844;52.380;7.018;2023-01-10T05:08:47;32.35;;;5.05;;
39098;SDS011;24844;52.380;7.018;2023-01-10T05:11:13;29.08;;;4.25;;
39098;SDS011;24844;52.380;7.018;2023-01-10T05:13:39;23.15;;;5.13;;
39098;SDS011;24844;52.380;7.018;2023-01-10T05:16:04;41.55;;;5.10;;
39098;SDS011;24844;52.380;7.018;2023-01-10T05:18:30;26.00;;;4.25;;
39098;SDS011;24844;52.380;7.018;2023-01-10T05:21:03;23.38;;;4.53;;
39098;SDS011;24844;52.380;7.018;2023-01-10T05:23:34;28.75;;;5.65;;
39098;SDS011;24844;52.380;7.018;2023-01-10T05:28:31;34.65;;;5.00;;
39098;SDS011;24844;52.380;7.018;2023-01-10T05:30:57;30.60;;;4.32;;
39098;SDS011;24844;52.380;7.018;2023-01-10T05:33:23;25.55;;;4.80;;
39098;SDS011;24844;52.380;7.018;2023-01-10T05:35:48;23.48;;;5.25;;
39098;SDS011;24844;52.380;7.018;2023-01-10T05:38:14;22.27;;;5.15;;
39098;SDS011;24844;52.380;7.018;2023-01-10T05:40:39;19.05;;;4.35;;
39098;SDS011;24844;52.380;7.018;2023-01-10T05:43:05;30.48;;;5.38;;
39098;SDS011;24844;52.380;7.018;2023-01-10T05:45:30;23.08;;;6.00;;
39098;SDS011;24844;52.380;7.018;2023-01-10T05:47:56;33.92;;;6.32;;
39098;SDS011;24844;52.380;7.018;2023-01-10T05:50:21;15.70;;;4.72;;
39098;SDS011;24844;52.380;7.018;2023-01-10T05:52:47;28.33;;;5.68;;
39098;SDS011;24844;52.380;7.018;2023-01-10T05:55:12;25.20;;;6.63;;
39098;SDS011;24844;52.380;7.018;2023-01-10T05:57:38;31.25;;;6.78;;
39098;SDS011;24844;52.380;7.018;2023-01-10T06:00:04;25.90;;;5.85;;
39098;SDS011;24844;52.380;7.018;2023-01-10T06:02:30;31.25;;;6.78;;
39098;SDS011;24844;52.380;7.018;2023-01-10T06:04:57;32.70;;;7.47;;
39098;SDS011;24844;52.380;7.018;2023-01-10T06:07:22;26.92;;;7.20;;
39098;SDS011;24844;52.380;7.018;2023-01-10T06:09:48;34.65;;;8.13;;
39098;SDS011;24844;52.380;7.018;2023-01-10T06:12:15;38.05;;;8.57;;
39098;SDS011;24844;52.380;7.018;2023-01-10T06:14:43;29.15;;;8.15;;
39098;SDS011;24844;52.380;7.018;2023-01-10T06:17:09;36.78;;;8.75;;
39098;SDS011;24844;52.380;7.018;2023-01-10T06:19:34;30.10;;;9.77;;
39098;SDS011;24844;52.380;7.018;2023-01-10T06:22:01;32.97;;;10.32;;
39098;SDS011;24844;52.380;7.018;2023-01-10T06:24:27;32.75;;;9.93;;
39098;SDS011;24844;52.380;7.018;2023-01-10T06:26:53;40.40;;;10.65;;
39098;SDS011;24844;52.380;7.018;2023-01-10T06:29:18;34.47;;;11.00;;
39098;SDS011;24844;52.380;7.018;2023-01-10T06:31:44;42.60;;;11.30;;
39098;SDS011;24844;52.380;7.018;2023-01-10T06:34:10;34.95;;;11.00;;
39098;SDS011;24844;52.380;7.018;2023-01-10T06:36:35;32.13;;;11.07;;
39098;SDS011;24844;52.380;7.018;2023-01-10T06:39:01;43.05;;;11.38;;
39098;SDS011;24844;52.380;7.018;2023-01-10T06:41:26;37.75;;;11.50;;
39098;SDS011;24844;52.380;7.018;2023-01-10T06:43:52;32.17;;;10.30;;
39098;SDS011;24844;52.380;7.018;2023-01-10T06:46:18;35.25;;;10.88;;
39098;SDS011;24844;52.380;7.018;2023-01-10T06:48:43;51.75;;;11.38;;
39098;SDS011;24844;52.380;7.018;2023-01-10T06:51:10;29.88;;;10.10;;
39098;SDS011;24844;52.380;7.018;2023-01-10T06:53:36;32.15;;;10.23;;
39098;SDS011;24844;52.380;7.018;2023-01-10T06:56:02;30.50;;;9.82;;
39098;SDS011;24844;52.380;7.018;2023-01-10T06:58:29;33.90;;;10.73;;
39098;SDS011;24844;52.380;7.018;2023-01-10T07:00:55;31.08;;;10.02;;
39098;SDS011;24844;52.380;7.018;2023-01-10T07:03:21;36.30;;;10.88;;
39098;SDS011;24844;52.380;7.018;2023-01-10T07:05:47;32.70;;;11.35;;
39098;SDS011;24844;52.380;7.018;2023-01-10T07:08:12;35.15;;;12.63;;
39098;SDS011;24844;52.380;7.018;2023-01-10T07:10:41;31.38;;;11.93;;
39098;SDS011;24844;52.380;7.018;2023-01-10T07:13:07;33.38;;;11.15;;
39098;SDS011;24844;52.380;7.018;2023-01-10T07:15:33;38.90;;;13.30;;
39098;SDS011;24844;52.380;7.018;2023-01-10T07:17:59;44.90;;;13.30;;
39098;SDS011;24844;52.380;7.018;2023-01-10T07:20:25;35.35;;;12.20;;
39098;SDS011;24844;52.380;7.018;2023-01-10T07:22:55;44.22;;;12.02;;
39098;SDS011;24844;52.380;7.018;2023-01-10T07:25:22;31.70;;;12.57;;
39098;SDS011;24844;52.380;7.018;2023-01-10T07:27:48;27.58;;;12.40;;
39098;SDS011;24844;52.380;7.018;2023-01-10T07:30:14;43.45;;;13.68;;
39098;SDS011;24844;52.380;7.018;2023-01-10T07:32:40;39.20;;;12.63;;
39098;SDS011;24844;52.380;7.018;2023-01-10T07:35:05;35.17;;;12.25;;
39098;SDS011;24844;52.380;7.018;2023-01-10T07:37:31;80.65;;;15.00;;
39098;SDS011;24844;52.380;7.018;2023-01-10T07:39:56;43.42;;;12.65;;
39098;SDS011;24844;52.380;7.018;2023-01-10T07:42:22;31.75;;;10.52;;
39098;SDS011;24844;52.380;7.018;2023-01-10T07:44:48;40.17;;;10.27;;
39098;SDS011;24844;52.380;7.018;2023-01-10T07:47:13;37.55;;;10.57;;
39098;SDS011;24844;52.380;7.018;2023-01-10T07:49:39;33.10;;;9.40;;
39098;SDS011;24844;52.380;7.018;2023-01-10T07:52:04;35.83;;;10.25;;
39098;SDS011;24844;52.380;7.018;2023-01-10T07:54:32;34.25;;;9.65;;
39098;SDS011;24844;52.380;7.018;2023-01-10T07:56:59;45.72;;;10.60;;
39098;SDS011;24844;52.380;7.018;2023-01-10T07:59:25;42.17;;;10.60;;
39098;SDS011;24844;52.380;7.018;2023-01-10T08:01:50;41.55;;;10.75;;
39098;SDS011;24844;52.380;7.018;2023-01-10T08:04:17;43.25;;;10.68;;
39098;SDS011;24844;52.380;7.018;2023-01-10T08:06:42;41.53;;;10.55;;
39098;SDS011;24844;52.380;7.018;2023-01-10T08:09:08;48.42;;;10.65;;
39098;SDS011;24844;52.380;7.018;2023-01-10T08:11:34;31.55;;;8.82;;
39098;SDS011;24844;52.380;7.018;2023-01-10T08:13:59;29.55;;;9.23;;
39098;SDS011;24844;52.380;7.018;2023-01-10T08:16:25;38.90;;;11.32;;
39098;SDS011;24844;52.380;7.018;2023-01-10T08:18:50;43.00;;;11.35;;
39098;SDS011;24844;52.380;7.018;2023-01-10T08:21:16;48.55;;;10.38;;
39098;SDS011;24844;52.380;7.018;2023-01-10T08:23:41;33.80;;;10.20;;
39098;SDS011;24844;52.380;7.018;2023-01-10T08:26:07;41.13;;;10.75;;
39098;SDS011;24844;52.380;7.018;2023-01-10T08:28:32;33.80;;;11.30;;
39098;SDS011;24844;52.380;7.018;2023-01-10T08:31:03;43.08;;;10.82;;
39098;SDS011;24844;52.380;7.018;2023-01-10T08:33:32;46.72;;;10.68;;
39098;SDS011;24844;52.380;7.018;2023-01-10T08:35:57;40.50;;;10.43;;
39098;SDS011;24844;52.380;7.018;2023-01-10T08:38:23;43.05;;;11.55;;
39098;SDS011;24844;52.380;7.018;2023-01-10T08:40:49;44.20;;;10.70;;
39098;SDS011;24844;52.380;7.018;2023-01-10T08:43:14;43.47;;;9.82;;
39098;SDS011;24844;52.380;7.018;2023-01-10T08:45:40;47.55;;;11.43;;
39098;SDS011;24844;52.380;7.018;2023-01-10T08:48:06;40.58;;;10.23;;
39098;SDS011;24844;52.380;7.018;2023-01-10T08:50:33;34.90;;;9.35;;
39098;SDS011;24844;52.380;7.018;2023-01-10T08:52:59;35.78;;;8.57;;
39098;SDS011;24844;52.380;7.018;2023-01-10T08:55:26;35.25;;;9.35;;
39098;SDS011;24844;52.380;7.018;2023-01-10T08:57:52;43.75;;;9.00;;
39098;SDS011;24844;52.380;7.018;2023-01-10T09:00:18;50.20;;;10.13;;
39098;SDS011;24844;52.380;7.018;2023-01-10T09:02:44;37.50;;;8.73;;
39098;SDS011;24844;52.380;7.018;2023-01-10T09:05:10;28.83;;;8.32;;
39098;SDS011;24844;52.380;7.018;2023-01-10T09:07:35;48.55;;;9.05;;
39098;SDS011;24844;52.380;7.018;2023-01-10T09:10:01;36.17;;;8.02;;
39098;SDS011;24844;52.380;7.018;2023-01-10T09:12:27;32.78;;;7.88;;
39098;SDS011;24844;52.380;7.018;2023-01-10T09:15:12;48.13;;;9.70;;
39098;SDS011;24844;52.380;7.018;2023-01-10T09:17:38;29.15;;;7.63;;
39098;SDS011;24844;52.380;7.018;2023-01-10T09:20:04;45.35;;;9.02;;
39098;SDS011;24844;52.380;7.018;2023-01-10T09:22:33;35.97;;;7.65;;
39098;SDS011;24844;52.380;7.018;2023-01-10T09:25:02;42.08;;;8.43;;
39098;SDS011;24844;52.380;7.018;2023-01-10T09:27:28;31.75;;;7.20;;
39098;SDS011;24844;52.380;7.018;2023-01-10T09:29:54;27.50;;;6.55;;
39098;SDS011;24844;52.380;7.018;2023-01-10T09:32:19;33.83;;;7.10;;
39098;SDS011;24844;52.380;7.018;2023-01-10T09:34:45;38.47;;;8.05;;
39098;SDS011;24844;52.380;7.018;2023-01-10T09:37:10;38.40;;;7.97;;
39098;SDS011;24844;52.380;7.018;2023-01-10T09:39:36;34.60;;;7.30;;
39098;SDS011;24844;52.380;7.018;2023-01-10T09:42:11;38.53;;;7.57;;
39098;SDS011;24844;52.380;7.018;2023-01-10T09:52:52;38.10;;;6.93;;
39098;SDS011;24844;52.380;7.018;2023-01-10T09:55:29;39.10;;;7.22;;
39098;SDS011;24844;52.380;7.018;2023-01-10T09:58:00;33.53;;;6.22;;
39098;SDS011;24844;52.380;7.018;2023-01-10T10:00:41;24.88;;;5.55;;
39098;SDS011;24844;52.380;7.018;2023-01-10T10:03:18;29.95;;;5.85;;
39098;SDS011;24844;52.380;7.018;2023-01-10T10:05:51;32.55;;;6.60;;
39098;SDS011;24844;52.380;7.018;2023-01-10T10:08:17;34.22;;;7.07;;
39098;SDS011;24844;52.380;7.018;2023-01-10T10:24:00;39.30;;;6.72;;
39098;SDS011;24844;52.380;7.018;2023-01-10T10:26:43;33.08;;;5.82;;
39098;SDS011;24844;52.380;7.018;2023-01-10T10:32:08;25.73;;;5.75;;
39098;SDS011;24844;52.380;7.018;2023-01-10T10:34:43;39.63;;;6.05;;
39098;SDS011;24844;52.380;7.018;2023-01-10T10:37:32;25.23;;;5.57;;
39098;SDS011;24844;52.380;7.018;2023-01-10T10:42:50;22.27;;;4.53;;
39098;SDS011;24844;52.380;7.018;2023-01-10T10:47:50;36.40;;;5.28;;
39098;SDS011;24844;52.380;7.018;2023-01-10T10:50:30;27.58;;;5.55;;
39098;SDS011;24844;52.380;7.018;2023-01-10T10:52:59;25.00;;;4.97;;
39098;SDS011;24844;52.380;7.018;2023-01-10T10:55:32;21.20;;;4.72;;
39098;SDS011;24844;52.380;7.018;2023-01-10T10:58:00;24.33;;;5.18;;
39098;SDS011;24844;52.380;7.018;2023-01-10T11:00:28;29.58;;;5.88;;
39098;SDS011;24844;52.380;7.018;2023-01-10T11:03:15;13.10;;;4.13;;
39098;SDS011;24844;52.380;7.018;2023-01-10T11:05:57;28.63;;;4.53;;
39098;SDS011;24844;52.380;7.018;2023-01-10T11:08:25;23.80;;;5.00;;
39098;SDS011;24844;52.380;7.018;2023-01-10T11:10:53;31.02;;;6.03;;
39098;SDS011;24844;52.380;7.018;2023-01-10T11:15:58;25.63;;;5.03;;
39098;SDS011;24844;52.380;7.018;2023-01-10T11:18:31;26.70;;;4.80;;
39098;SDS011;24844;52.380;7.018;2023-01-10T11:29:05;25.33;;;5.07;;
39098;SDS011;24844;52.380;7.018;2023-01-10T11:31:38;32.33;;;5.25;;
39098;SDS011;24844;52.380;7.018;2023-01-10T11:34:06;26.92;;;5.13;;
39098;SDS011;24844;52.380;7.018;2023-01-10T11:39:19;24.30;;;5.05;;
39098;SDS011;24844;52.380;7.018;2023-01-10T11:41:44;27.05;;;5.32;;
39098;SDS011;24844;52.380;7.018;2023-01-10T11:44:16;25.85;;;4.47;;
39098;SDS011;24844;52.380;7.018;2023-01-10T11:46:46;22.30;;;4.43;;
39098;SDS011;24844;52.380;7.018;2023-01-10T11:49:14;23.90;;;4.30;;
39098;SDS011;24844;52.380;7.018;2023-01-10T11:51:49;30.40;;;4.88;;
39098;SDS011;24844;52.380;7.018;2023-01-10T11:54:24;17.70;;;3.67;;
39098;SDS011;24844;52.380;7.018;2023-01-10T11:56:55;25.35;;;4.35;;
39098;SDS011;24844;52.380;7.018;2023-01-10T11:59:24;30.50;;;5.35;;
39098;SDS011;24844;52.380;7.018;2023-01-10T12:02:01;19.70;;;4.30;;
39098;SDS011;24844;52.380;7.018;2023-01-10T12:04:38;26.17;;;4.82;;
39098;SDS011;24844;52.380;7.018;2023-01-10T12:07:07;23.80;;;4.90;;
39098;SDS011;24844;52.380;7.018;2023-01-10T12:09:52;25.13;;;4.82;;
39098;SDS011;24844;52.380;7.018;2023-01-10T12:12:20;21.70;;;4.68;;
39098;SDS011;24844;52.380;7.018;2023-01-10T12:14:48;21.60;;;4.65;;
39098;SDS011;24844;52.380;7.018;2023-01-10T12:17:18;25.13;;;5.18;;
39098;SDS011;24844;52.380;7.018;2023-01-10T12:19:44;74.80;;;8.25;;
39098;SDS011;24844;52.380;7.018;2023-01-10T12:22:10;26.08;;;4.82;;
39098;SDS011;24844;52.380;7.018;2023-01-10T12:24:38;27.80;;;6.23;;
39098;SDS011;24844;52.380;7.018;2023-01-10T12:27:06;21.67;;;4.82;;
39098;SDS011;24844;52.380;7.018;2023-01-10T12:29:40;25.42;;;5.20;;
39098;SDS011;24844;52.380;7.018;2023-01-10T12:32:26;25.55;;;5.55;;
39098;SDS011;24844;52.380;7.018;2023-01-10T12:35:09;27.30;;;5.97;;
39098;SDS011;24844;52.380;7.018;2023-01-10T12:37:47;57.43;;;6.97;;
39098;SDS011;24844;52.380;7.018;2023-01-10T12:40:35;23.15;;;4.88;;
39098;SDS011;24844;52.380;7.018;2023-01-10T12:43:10;26.60;;;5.05;;
39098;SDS011;24844;52.380;7.018;2023-01-10T12:46:02;28.30;;;5.95;;
39098;SDS011;24844;52.380;7.018;2023-01-10T12:51:16;24.77;;;5.10;;
39098;SDS011;24844;52.380;7.018;2023-01-10T12:53:47;31.77;;;5.32;;
39098;SDS011;24844;52.380;7.018;2023-01-10T12:56:25;15.60;;;3.67;;
39098;SDS011;24844;52.380;7.018;2023-01-10T12:58:57;25.95;;;4.28;;
39098;SDS011;24844;52.380;7.018;2023-01-10T13:01:28;27.95;;;5.57;;
39098;SDS011;24844;52.380;7.018;2023-01-10T13:04:03;20.83;;;3.78;;
39098;SDS011;24844;52.380;7.018;2023-01-10T13:06:41;27.02;;;4.95;;
39098;SDS011;24844;52.380;7.018;2023-01-10T13:09:11;48.95;;;6.18;;
39098;SDS011;24844;52.380;7.018;2023-01-10T13:14:29;24.38;;;4.70;;
39098;SDS011;24844;52.380;7.018;2023-01-10T13:17:09;28.52;;;5.05;;
39098;SDS011;24844;52.380;7.018;2023-01-10T13:22:49;25.80;;;4.68;;
39098;SDS011;24844;52.380;7.018;2023-01-10T13:25:20;26.38;;;4.50;;
39098;SDS011;24844;52.380;7.018;2023-01-10T13:27:47;24.75;;;4.35;;
39098;SDS011;24844;52.380;7.018;2023-01-10T13:30:25;19.02;;;4.55;;
39098;SDS011;24844;52.380;7.018;2023-01-10T13:33:04;24.50;;;4.28;;
39098;SDS011;24844;52.380;7.018;2023-01-10T13:35:39;26.00;;;4.40;;
39098;SDS011;24844;52.380;7.018;2023-01-10T13:38:26;32.00;;;4.63;;
39098;SDS011;24844;52.380;7.018;2023-01-10T13:41:03;34.88;;;5.20;;
39098;SDS011;24844;52.380;7.018;2023-01-10T13:51:21;17.33;;;3.38;;
39098;SDS011;24844;52.380;7.018;2023-01-10T13:56:28;22.92;;;4.15;;
39098;SDS011;24844;52.380;7.018;2023-01-10T13:58:58;36.00;;;5.50;;
39098;SDS011;24844;52.380;7.018;2023-01-10T14:01:46;35.58;;;4.93;;
39098;SDS011;24844;52.380;7.018;2023-01-10T14:04:52;28.65;;;4.70;;
39098;SDS011;24844;52.380;7.018;2023-01-10T14:07:48;24.38;;;4.32;;
39098;SDS011;24844;52.380;7.018;2023-01-10T14:10:20;28.13;;;4.57;;
39098;SDS011;24844;52.380;7.018;2023-01-10T14:12:51;19.00;;;3.28;;
39098;SDS011;24844;52.380;7.018;2023-01-10T14:15:25;20.73;;;3.15;;
39098;SDS011;24844;52.380;7.018;2023-01-10T14:18:00;27.50;;;4.18;;
39098;SDS011;24844;52.380;7.018;2023-01-10T14:20:28;20.33;;;3.80;;
39098;SDS011;24844;52.380;7.018;2023-01-10T14:23:04;28.40;;;3.97;;
39098;SDS011;24844;52.380;7.018;2023-01-10T14:25:43;27.33;;;4.07;;
39098;SDS011;24844;52.380;7.018;2023-01-10T14:28:29;30.63;;;4.90;;
39098;SDS011;24844;52.380;7.018;2023-01-10T14:31:06;19.65;;;3.42;;
39098;SDS011;24844;52.380;7.018;2023-01-10T14:33:33;24.33;;;4.22;;
39098;SDS011;24844;52.380;7.018;2023-01-10T14:36:02;18.88;;;3.53;;
39098;SDS011;24844;52.380;7.018;2023-01-10T14:38:33;20.75;;;4.00;;
39098;SDS011;24844;52.380;7.018;2023-01-10T14:41:02;15.52;;;2.97;;
39098;SDS011;24844;52.380;7.018;2023-01-10T14:43:37;25.17;;;3.53;;
39098;SDS011;24844;52.380;7.018;2023-01-10T14:46:16;14.55;;;3.05;;
39098;SDS011;24844;52.380;7.018;2023-01-10T14:48:54;22.25;;;3.80;;
39098;SDS011;24844;52.380;7.018;2023-01-10T14:51:25;20.80;;;3.40;;
39098;SDS011;24844;52.380;7.018;2023-01-10T14:53:58;18.33;;;3.58;;
39098;SDS011;24844;52.380;7.018;2023-01-10T14:58:54;17.02;;;2.53;;
39098;SDS011;24844;52.380;7.018;2023-01-10T15:01:23;20.70;;;3.70;;
39098;SDS011;24844;52.380;7.018;2023-01-10T15:03:51;18.85;;;3.33;;
39098;SDS011;24844;52.380;7.018;2023-01-10T15:06:18;22.77;;;3.60;;
39098;SDS011;24844;52.380;7.018;2023-01-10T15:08:43;19.40;;;3.70;;
39098;SDS011;24844;52.380;7.018;2023-01-10T15:11:09;25.42;;;3.42;;
39098;SDS011;24844;52.380;7.018;2023-01-10T15:13:51;23.97;;;5.50;;
39098;SDS011;24844;52.380;7.018;2023-01-10T15:16:21;18.80;;;3.75;;
39098;SDS011;24844;52.380;7.018;2023-01-10T15:18:48;22.75;;;3.90;;
39098;SDS011;24844;52.380;7.018;2023-01-10T15:21:15;23.08;;;4.28;;
39098;SDS011;24844;52.380;7.018;2023-01-10T15:23:44;18.02;;;3.80;;
39098;SDS011;24844;52.380;7.018;2023-01-10T15:28:40;15.45;;;3.08;;
39098;SDS011;24844;52.380;7.018;2023-01-10T15:31:07;19.40;;;3.25;;
39098;SDS011;24844;52.380;7.018;2023-01-10T15:33:35;23.52;;;4.32;;
39098;SDS011;24844;52.380;7.018;2023-01-10T15:36:06;18.48;;;2.70;;
39098;SDS011;24844;52.380;7.018;2023-01-10T15:38:37;23.20;;;3.03;;
39098;SDS011;24844;52.380;7.018;2023-01-10T15:41:06;22.30;;;2.92;;
39098;SDS011;24844;52.380;7.018;2023-01-10T15:43:33;24.38;;;3.67;;
39098;SDS011;24844;52.380;7.018;2023-01-10T15:46:00;17.67;;;3.63;;
39098;SDS011;24844;52.380;7.018;2023-01-10T15:53:54;28.08;;;3.53;;
39098;SDS011;24844;52.380;7.018;2023-01-10T15:59:05;25.70;;;3.90;;
39098;SDS011;24844;52.380;7.018;2023-01-10T16:02:03;22.73;;;3.58;;
39098;SDS011;24844;52.380;7.018;2023-01-10T16:04:33;22.05;;;3.05;;
39098;SDS011;24844;52.380;7.018;2023-01-10T16:09:50;22.05;;;3.42;;
39098;SDS011;24844;52.380;7.018;2023-01-10T16:12:25;11.80;;;2.80;;
39098;SDS011;24844;52.380;7.018;2023-01-10T16:15:16;10.88;;;2.33;;
39098;SDS011;24844;52.380;7.018;2023-01-10T16:17:45;23.40;;;4.45;;
39098;SDS011;24844;52.380;7.018;2023-01-10T16:20:12;18.63;;;3.15;;
39098;SDS011;24844;52.380;7.018;2023-01-10T16:22:42;22.98;;;2.92;;
39098;SDS011;24844;52.380;7.018;2023-01-10T16:25:16;24.13;;;2.83;;
39098;SDS011;24844;52.380;7.018;2023-01-10T16:27:48;16.17;;;3.00;;
39098;SDS011;24844;52.380;7.018;2023-01-10T16:30:24;10.93;;;2.45;;
39098;SDS011;24844;52.380;7.018;2023-01-10T16:32:54;20.10;;;3.83;;
39098;SDS011;24844;52.380;7.018;2023-01-10T16:35:22;23.53;;;3.53;;
39098;SDS011;24844;52.380;7.018;2023-01-10T16:37:51;21.55;;;3.00;;
39098;SDS011;24844;52.380;7.018;2023-01-10T16:43:16;28.85;;;3.63;;
39098;SDS011;24844;52.380;7.018;2023-01-10T16:45:45;20.52;;;3.35;;
39098;SDS011;24844;52.380;7.018;2023-01-10T16:48:12;16.05;;;3.30;;
39098;SDS011;24844;52.380;7.018;2023-01-10T16:50:39;12.38;;;2.13;;